createdAt,value
2023-10-16T00:01:33.674Z,101011.94
2023-10-16T00:04:02.533Z,101005.19
2023-10-16T00:06:30.958Z,101009.47
2023-10-16T00:09:15.867Z,101009.91
2023-10-16T00:11:44.439Z,101004.75
2023-10-16T00:14:25.652Z,101008.78
2023-10-16T00:16:54.215Z,101012.06
2023-10-16T00:19:25.675Z,101001.59
2023-10-16T00:21:53.933Z,101006.41
2023-10-16T00:24:22.565Z,101010.25
2023-10-16T00:26:50.920Z,101006.97
2023-10-16T00:29:37.117Z,101006.00
2023-10-16T00:32:08.657Z,101001.81
2023-10-16T00:34:37.192Z,101009.69
2023-10-16T00:37:06.256Z,101002.75
2023-10-16T00:39:36.872Z,101010.69
2023-10-16T00:42:10.120Z,101011.97
2023-10-16T00:44:41.655Z,101012.69
2023-10-16T00:47:13.189Z,101017.66
2023-10-16T00:49:41.693Z,101010.22
2023-10-16T00:52:12.111Z,101013.84
2023-10-16T00:54:41.586Z,101010.66
2023-10-16T00:57:13.823Z,101014.19
2023-10-16T00:59:43.614Z,101009.88
2023-10-16T01:02:17.579Z,101013.59
2023-10-16T01:04:48.971Z,101008.09
2023-10-16T01:07:17.593Z,101009.69
2023-10-16T01:09:49.395Z,101011.47
2023-10-16T01:12:21.878Z,101015.97
2023-10-16T01:14:50.779Z,101024.28
2023-10-16T01:17:31.307Z,101022.81
2023-10-16T01:20:01.141Z,101021.25
2023-10-16T01:22:31.433Z,101024.38
2023-10-16T01:25:02.726Z,101024.94
2023-10-16T01:27:31.794Z,101021.78
2023-10-16T01:30:03.953Z,101024.13
2023-10-16T01:32:32.981Z,101019.53
2023-10-16T01:35:02.027Z,101023.91
2023-10-16T01:37:31.833Z,101032.91
2023-10-16T01:40:23.351Z,101027.75
2023-10-16T01:42:56.169Z,101034.38
2023-10-16T01:45:28.612Z,101022.94
2023-10-16T01:47:57.315Z,101030.56
2023-10-16T01:50:28.934Z,101033.56
2023-10-16T01:52:57.039Z,101025.72
2023-10-16T01:55:26.588Z,101030.19
2023-10-16T01:58:01.012Z,101034.69
2023-10-16T02:00:36.142Z,101032.69
2023-10-16T02:03:10.108Z,101029.31
2023-10-16T02:05:42.951Z,101036.13
2023-10-16T02:08:14.115Z,101034.09
2023-10-16T02:10:45.976Z,101040.50
2023-10-16T02:13:14.344Z,101048.50
2023-10-16T02:15:44.827Z,101047.50
2023-10-16T02:18:25.362Z,101054.22
2023-10-16T02:20:54.348Z,101053.41
2023-10-16T02:23:22.382Z,101049.84
2023-10-16T02:25:51.036Z,101055.44
2023-10-16T02:28:21.198Z,101049.63
2023-10-16T02:30:51.115Z,101049.72
2023-10-16T02:33:19.464Z,101063.81
2023-10-16T02:35:49.878Z,101063.22
2023-10-16T02:38:30.629Z,101063.00
2023-10-16T02:41:06.462Z,101060.88
2023-10-16T02:43:43.149Z,101060.03
2023-10-16T02:46:11.777Z,101060.31
2023-10-16T02:48:43.738Z,101068.09
2023-10-16T02:51:12.914Z,101071.16
2023-10-16T02:53:43.713Z,101074.00
2023-10-16T02:56:18.796Z,101073.63
2023-10-16T02:58:56.512Z,101075.06
2023-10-16T03:01:25.121Z,101085.22
2023-10-16T03:03:54.013Z,101073.56
2023-10-16T03:06:23.115Z,101071.41
2023-10-16T03:08:51.936Z,101078.97
2023-10-16T03:11:22.402Z,101072.84
2023-10-16T03:13:53.490Z,101082.81
2023-10-16T03:16:25.648Z,101078.25
2023-10-16T03:19:17.852Z,101085.06
2023-10-16T03:21:47.101Z,101076.28
2023-10-16T03:24:17.361Z,101086.91
2023-10-16T03:26:45.800Z,101101.00
2023-10-16T03:29:13.814Z,101089.19
2023-10-16T03:31:42.282Z,101087.22
2023-10-16T03:34:13.300Z,101099.38
2023-10-16T03:36:43.019Z,101094.28
2023-10-16T03:39:13.709Z,101102.38
2023-10-16T03:41:43.975Z,101107.59
2023-10-16T03:44:15.880Z,101108.81
2023-10-16T03:46:45.978Z,101113.72
2023-10-16T03:49:16.506Z,101122.03
2023-10-16T03:51:49.938Z,101109.69
2023-10-16T03:54:25.525Z,101112.00
2023-10-16T03:56:54.801Z,101111.34
2023-10-16T03:59:23.032Z,101112.84
2023-10-16T04:01:51.602Z,101108.03
2023-10-16T04:04:19.880Z,101109.34
2023-10-16T04:06:50.340Z,101108.81
2023-10-16T04:09:19.286Z,101109.09
2023-10-16T04:11:55.918Z,101118.44
2023-10-16T04:14:46.561Z,101115.03
2023-10-16T04:17:15.061Z,101112.53
2023-10-16T04:20:01.207Z,101120.03
2023-10-16T04:22:44.557Z,101126.31
2023-10-16T04:25:19.821Z,101121.44
2023-10-16T04:27:56.338Z,101122.13
2023-10-16T04:30:24.422Z,101121.41
2023-10-16T04:33:15.500Z,101124.63
2023-10-16T04:35:43.620Z,101117.53
2023-10-16T04:38:33.034Z,101117.94
2023-10-16T04:41:19.946Z,101125.47
2023-10-16T04:44:14.812Z,101123.63
2023-10-16T04:47:01.841Z,101120.81
2023-10-16T04:49:30.543Z,101117.72
2023-10-16T04:52:09.052Z,101127.69
2023-10-16T04:54:56.209Z,101122.00
2023-10-16T04:57:27.406Z,101123.91
2023-10-16T05:00:13.745Z,101129.59
2023-10-16T05:02:45.591Z,101121.34
2023-10-16T05:05:32.590Z,101125.53
2023-10-16T05:08:19.326Z,101129.00
2023-10-16T05:11:13.456Z,101124.53
2023-10-16T05:13:44.590Z,101122.13
2023-10-16T05:16:33.333Z,101125.19
2023-10-16T05:19:05.347Z,101134.50
2023-10-16T05:21:44.264Z,101139.72
2023-10-16T05:24:30.759Z,101137.69
2023-10-16T05:27:18.118Z,101142.81
2023-10-16T05:30:05.109Z,101147.00
2023-10-16T05:32:51.978Z,101153.28
2023-10-16T05:35:38.799Z,101147.56
2023-10-16T05:38:26.033Z,101151.41
2023-10-16T05:41:29.035Z,101149.41
2023-10-16T05:44:16.850Z,101153.22
2023-10-16T05:47:04.677Z,101155.91
2023-10-16T05:49:51.422Z,101164.88
2023-10-16T05:52:38.207Z,101160.03
2023-10-16T05:55:25.476Z,101167.66
2023-10-16T05:58:19.810Z,101170.47
2023-10-16T06:01:06.861Z,101168.72
2023-10-16T06:03:53.657Z,101174.56
2023-10-16T06:06:40.890Z,101174.16
2023-10-16T06:09:27.866Z,101173.38
2023-10-16T06:12:15.320Z,101171.00
2023-10-16T06:14:46.736Z,101178.16
2023-10-16T06:17:17.490Z,101175.78
2023-10-16T06:19:45.689Z,101178.03
2023-10-16T06:22:14.459Z,101183.41
2023-10-16T06:25:00.752Z,101183.06
2023-10-16T06:27:35.353Z,101181.44
2023-10-16T06:30:07.307Z,101182.13
2023-10-16T06:32:38.802Z,101183.88
2023-10-16T06:35:09.474Z,101185.53
2023-10-16T06:37:39.835Z,101185.66
2023-10-16T06:40:17.721Z,101192.75
2023-10-16T06:42:49.378Z,101199.75
2023-10-16T06:45:24.183Z,101200.75
2023-10-16T06:47:56.496Z,101198.53
2023-10-16T06:50:24.635Z,101202.81
2023-10-16T06:52:55.566Z,101209.22
2023-10-16T06:55:23.898Z,101204.94
2023-10-16T06:57:52.563Z,101207.19
2023-10-16T07:00:33.922Z,101208.72
2023-10-16T07:03:11.156Z,101216.19
2023-10-16T07:05:46.166Z,101213.81
2023-10-16T07:08:20.030Z,101208.78
2023-10-16T07:10:51.911Z,101212.50
2023-10-16T07:13:29.294Z,101218.75
2023-10-16T07:16:03.821Z,101217.66
2023-10-16T07:18:36.020Z,101220.56
2023-10-16T07:21:08.817Z,101222.34
2023-10-16T07:23:38.485Z,101223.38
2023-10-16T07:26:10.712Z,101217.44
2023-10-16T07:28:41.360Z,101219.78
2023-10-16T07:31:12.393Z,101213.63
2023-10-16T07:33:44.074Z,101214.41
2023-10-16T07:36:14.844Z,101216.63
2023-10-16T07:38:43.429Z,101218.22
2023-10-16T07:41:14.215Z,101219.91
2023-10-16T07:43:47.765Z,101229.09
2023-10-16T07:46:31.899Z,101221.00
2023-10-16T07:49:11.503Z,101236.50
2023-10-16T07:51:47.270Z,101225.94
2023-10-16T07:54:16.114Z,101227.16
2023-10-16T07:56:46.035Z,101232.69
2023-10-16T07:59:20.092Z,101225.94
2023-10-16T08:01:59.315Z,101223.69
2023-10-16T08:04:28.610Z,101226.72
2023-10-16T08:07:06.149Z,101216.94
2023-10-16T08:09:36.493Z,101224.09
2023-10-16T08:12:15.066Z,101227.94
2023-10-16T08:14:43.530Z,101223.16
2023-10-16T08:17:19.166Z,101232.38
2023-10-16T08:19:50.894Z,101231.97
2023-10-16T08:22:19.118Z,101226.91
2023-10-16T08:25:06.229Z,101224.56
2023-10-16T08:27:40.451Z,101225.94
2023-10-16T08:30:19.912Z,101229.19
2023-10-16T08:32:49.330Z,101225.88
2023-10-16T08:35:24.128Z,101225.78
2023-10-16T08:38:01.208Z,101221.78
2023-10-16T08:40:36.983Z,101225.47
2023-10-16T08:43:05.977Z,101219.06
2023-10-16T08:45:35.044Z,101226.50
2023-10-16T08:48:06.989Z,101224.31
2023-10-16T08:50:43.198Z,101219.25
2023-10-16T08:53:32.428Z,101216.09
2023-10-16T08:56:10.092Z,101214.00
2023-10-16T08:58:46.012Z,101217.34
2023-10-16T09:01:18.676Z,101208.72
2023-10-16T09:03:58.433Z,101208.19
2023-10-16T09:06:27.156Z,101214.19
2023-10-16T09:08:56.405Z,101203.97
2023-10-16T09:11:28.557Z,101207.13
2023-10-16T09:13:56.933Z,101204.88
2023-10-16T09:16:26.678Z,101206.44
2023-10-16T09:18:55.746Z,101199.03
2023-10-16T09:21:29.617Z,101193.53
2023-10-16T09:24:01.851Z,101197.28
2023-10-16T09:26:39.501Z,101200.91
2023-10-16T09:29:16.669Z,101200.13
2023-10-16T09:31:46.481Z,101195.50
2023-10-16T09:34:19.825Z,101199.19
2023-10-16T09:37:12.338Z,101203.16
2023-10-16T09:39:50.837Z,101200.72
2023-10-16T09:42:25.942Z,101208.00
2023-10-16T09:44:58.211Z,101215.50
2023-10-16T09:47:27.962Z,101208.16
2023-10-16T09:50:01.070Z,101213.50
2023-10-16T09:52:32.864Z,101213.84
2023-10-16T09:55:01.973Z,101215.16
2023-10-16T09:57:32.721Z,101206.72
2023-10-16T10:00:22.665Z,101212.13
2023-10-16T10:02:54.690Z,101203.53
2023-10-16T10:05:24.048Z,101200.47
2023-10-16T10:08:00.197Z,101200.59
2023-10-16T10:10:34.639Z,101203.50
2023-10-16T10:13:10.572Z,101202.09
2023-10-16T10:15:46.318Z,101203.66
2023-10-16T10:18:43.927Z,101204.44
2023-10-16T10:21:19.946Z,101202.47
2023-10-16T10:23:49.721Z,101202.06
2023-10-16T10:26:21.957Z,101201.81
2023-10-16T10:29:10.982Z,101196.56
2023-10-16T10:31:43.860Z,101193.59
2023-10-16T10:34:24.808Z,101197.72
2023-10-16T10:36:54.839Z,101181.72
2023-10-16T10:39:23.614Z,101181.22
2023-10-16T10:41:55.823Z,101184.94
2023-10-16T10:44:39.230Z,101181.84
2023-10-16T10:47:32.564Z,101176.78
2023-10-16T10:50:13.371Z,101173.94
2023-10-16T10:52:43.026Z,101168.44
2023-10-16T10:55:24.371Z,101166.03
2023-10-16T10:57:59.301Z,101167.19
2023-10-16T11:00:28.603Z,101168.50
2023-10-16T11:03:02.804Z,101160.09
2023-10-16T11:05:35.247Z,101155.75
2023-10-16T11:08:11.708Z,101149.47
2023-10-16T11:10:45.776Z,101155.44
2023-10-16T11:13:16.409Z,101141.28
2023-10-16T11:15:56.004Z,101145.84
2023-10-16T11:18:28.027Z,101133.16
2023-10-16T11:21:06.539Z,101134.56
2023-10-16T11:23:41.762Z,101130.16
2023-10-16T11:26:15.342Z,101123.63
2023-10-16T11:28:50.478Z,101129.28
2023-10-16T11:31:20.684Z,101121.19
2023-10-16T11:34:08.225Z,101120.78
2023-10-16T11:36:42.031Z,101119.97
2023-10-16T11:39:21.021Z,101108.50
2023-10-16T11:41:50.638Z,101113.78
2023-10-16T11:44:20.781Z,101103.72
2023-10-16T11:46:54.127Z,101106.06
2023-10-16T11:49:24.480Z,101104.38
2023-10-16T11:51:54.787Z,101109.28
2023-10-16T11:54:25.163Z,101098.25
2023-10-16T11:56:59.694Z,101099.47
2023-10-16T11:59:30.052Z,101084.63
2023-10-16T12:02:04.524Z,101085.75
2023-10-16T12:04:34.141Z,101089.03
2023-10-16T12:07:03.076Z,101093.81
2023-10-16T12:09:38.894Z,101081.09
2023-10-16T12:12:09.124Z,101075.19
2023-10-16T12:14:40.312Z,101068.41
2023-10-16T12:17:13.577Z,101074.16
2023-10-16T12:19:41.908Z,101084.22
2023-10-16T12:22:10.722Z,101075.81
2023-10-16T12:24:40.778Z,101071.34
2023-10-16T12:27:09.785Z,101059.06
2023-10-16T12:29:38.049Z,101068.47
2023-10-16T12:32:06.532Z,101068.47
2023-10-16T12:34:35.434Z,101058.72
2023-10-16T12:37:08.572Z,101052.16
2023-10-16T12:39:49.576Z,101052.25
2023-10-16T12:42:20.272Z,101053.81
2023-10-16T12:44:48.550Z,101045.06
2023-10-16T12:47:28.198Z,101054.28
2023-10-16T12:50:06.932Z,101048.66
2023-10-16T12:52:35.382Z,101046.19
2023-10-16T12:55:03.524Z,101053.16
2023-10-16T12:57:33.842Z,101051.53
2023-10-16T13:00:01.980Z,101049.47
2023-10-16T13:02:30.603Z,101052.41
2023-10-16T13:05:03.053Z,101048.78
2023-10-16T13:07:42.271Z,101060.06
2023-10-16T13:10:18.241Z,101055.22
2023-10-16T13:12:47.463Z,101046.88
2023-10-16T13:15:17.602Z,101052.19
2023-10-16T13:17:46.230Z,101044.31
2023-10-16T13:20:19.396Z,101042.41
2023-10-16T13:22:51.195Z,101044.88
2023-10-16T13:25:23.114Z,101043.66
2023-10-16T13:27:52.991Z,101052.47
2023-10-16T13:30:24.047Z,101040.50
2023-10-16T13:32:52.988Z,101045.47
2023-10-16T13:35:22.477Z,101039.44
2023-10-16T13:37:52.127Z,101041.88
2023-10-16T13:40:26.154Z,101046.63
2023-10-16T13:42:56.779Z,101043.41
2023-10-16T13:45:27.163Z,101035.78
2023-10-16T13:47:56.671Z,101037.25
2023-10-16T13:50:29.652Z,101033.50
2023-10-16T13:52:58.278Z,101023.47
2023-10-16T13:55:31.733Z,101025.78
2023-10-16T13:58:00.210Z,101033.41
2023-10-16T14:00:31.335Z,101027.97
2023-10-16T14:03:11.125Z,101023.44
2023-10-16T14:05:52.201Z,101020.00
2023-10-16T14:08:32.405Z,101022.16
2023-10-16T14:11:01.965Z,101023.00
2023-10-16T14:13:33.861Z,101020.84
2023-10-16T14:16:13.040Z,101014.47
2023-10-16T14:18:45.736Z,101012.53
2023-10-16T14:21:15.604Z,101011.13
2023-10-16T14:24:03.405Z,101010.09
2023-10-16T14:26:31.809Z,101014.59
2023-10-16T14:29:05.517Z,101012.78
2023-10-16T14:31:35.303Z,101007.44
2023-10-16T14:34:07.343Z,101019.66
2023-10-16T14:36:35.510Z,101006.81
2023-10-16T14:39:06.435Z,101006.03
2023-10-16T14:41:34.508Z,100997.00
2023-10-16T14:44:16.938Z,100990.72
2023-10-16T14:46:52.389Z,100995.16
2023-10-16T14:49:21.488Z,100993.06
2023-10-16T14:51:52.268Z,100995.44
2023-10-16T14:54:23.473Z,100991.47
2023-10-16T14:56:53.997Z,100984.22
2023-10-16T14:59:35.574Z,100984.28
2023-10-16T15:02:04.641Z,100990.91
2023-10-16T15:04:34.326Z,100995.44
2023-10-16T15:07:06.468Z,100993.81
2023-10-16T15:09:36.518Z,100980.34
2023-10-16T15:12:08.612Z,100986.03
2023-10-16T15:14:37.494Z,100979.78
2023-10-16T15:17:06.917Z,100984.03
2023-10-16T15:19:40.321Z,100986.16
2023-10-16T15:22:08.579Z,100984.25
2023-10-16T15:24:38.800Z,100983.63
2023-10-16T15:27:07.096Z,100980.91
2023-10-16T15:29:36.465Z,100982.34
2023-10-16T15:32:09.509Z,100978.78
2023-10-16T15:34:37.951Z,100978.63
2023-10-16T15:37:10.834Z,100972.28
2023-10-16T15:39:40.726Z,100969.66
2023-10-16T15:42:09.759Z,100963.47
2023-10-16T15:44:38.492Z,100970.81
2023-10-16T15:47:08.704Z,100961.78
2023-10-16T15:49:37.895Z,100971.41
2023-10-16T15:52:07.361Z,100965.72
2023-10-16T15:54:35.789Z,100969.78
2023-10-16T15:57:03.918Z,100972.97
2023-10-16T15:59:32.855Z,100976.47
2023-10-16T16:02:00.879Z,100968.19
2023-10-16T16:04:30.074Z,100973.59
2023-10-16T16:07:03.561Z,100966.13
2023-10-16T16:09:31.893Z,100975.09
2023-10-16T16:12:00.102Z,100977.88
2023-10-16T16:14:29.021Z,100977.00
2023-10-16T16:16:57.404Z,100981.19
2023-10-16T16:19:26.356Z,100973.44
2023-10-16T16:21:54.812Z,100985.19
2023-10-16T16:24:23.230Z,100982.59
2023-10-16T16:26:51.413Z,100980.53
2023-10-16T16:29:20.060Z,100985.63
2023-10-16T16:31:48.460Z,100983.97
2023-10-16T16:34:17.023Z,100992.00
2023-10-16T16:36:45.431Z,100997.47
2023-10-16T16:39:19.798Z,100992.78
2023-10-16T16:41:48.402Z,101002.19
2023-10-16T16:44:17.041Z,101005.91
2023-10-16T16:46:45.827Z,101006.38
2023-10-16T16:49:14.646Z,100997.75
2023-10-16T16:51:44.714Z,100993.03
2023-10-16T16:54:14.154Z,101009.59
2023-10-16T16:56:43.044Z,101012.81
2023-10-16T16:59:14.445Z,101019.91
2023-10-16T17:01:48.528Z,101016.19
2023-10-16T17:04:18.207Z,101014.56
2023-10-16T17:06:46.438Z,101016.97
2023-10-16T17:09:19.474Z,101019.44
2023-10-16T17:11:49.616Z,101017.84
2023-10-16T17:14:20.205Z,101017.03
2023-10-16T17:16:50.881Z,101008.16
2023-10-16T17:19:20.110Z,101015.75
2023-10-16T17:21:49.207Z,101014.63
2023-10-16T17:24:17.793Z,101012.44
2023-10-16T17:26:46.851Z,101012.50
2023-10-16T17:29:16.063Z,101009.34
2023-10-16T17:31:44.234Z,101012.59
2023-10-16T17:34:15.291Z,101019.34
2023-10-16T17:36:44.692Z,101018.69
2023-10-16T17:39:15.112Z,101019.56
2023-10-16T17:41:43.413Z,101030.69
2023-10-16T17:44:11.757Z,101027.94
2023-10-16T17:46:42.268Z,101032.50
2023-10-16T17:49:11.066Z,101030.16
2023-10-16T17:51:39.513Z,101030.59
2023-10-16T17:54:10.501Z,101024.75
2023-10-16T17:56:41.381Z,101024.00
2023-10-16T17:59:13.005Z,101032.50
2023-10-16T18:01:45.340Z,101032.03
2023-10-16T18:04:14.602Z,101029.41
2023-10-16T18:06:43.568Z,101036.53
2023-10-16T18:09:12.430Z,101040.47
2023-10-16T18:11:40.549Z,101032.06
2023-10-16T18:14:09.115Z,101033.28
2023-10-16T18:16:40.572Z,101028.06
2023-10-16T18:19:12.344Z,101033.44
2023-10-16T18:21:41.856Z,101031.47
2023-10-16T18:40:02.240Z,101032.84
2023-10-16T18:42:31.154Z,101027.56
2023-10-16T18:44:59.369Z,101029.50
2023-10-16T18:47:28.646Z,101022.41
2023-10-16T18:49:56.814Z,101026.50
2023-10-16T18:52:26.587Z,101021.47
2023-10-16T18:54:54.904Z,101032.69
2023-10-16T18:57:23.954Z,101031.91
2023-10-16T18:59:52.232Z,101027.31
2023-10-16T19:02:20.730Z,101031.34
2023-10-16T19:04:48.837Z,101034.03
2023-10-16T19:07:17.463Z,101038.16
2023-10-16T19:09:45.521Z,101039.28
2023-10-16T19:12:15.663Z,101037.50
2023-10-16T19:14:43.942Z,101036.25
2023-10-16T19:17:13.030Z,101040.75
2023-10-16T19:19:41.227Z,101041.75
2023-10-16T19:22:10.071Z,101045.69
2023-10-16T19:24:38.194Z,101046.84
2023-10-16T19:27:06.722Z,101054.91
2023-10-16T19:29:35.053Z,101051.41
2023-10-16T19:32:03.797Z,101052.63
2023-10-16T19:34:32.360Z,101054.78
2023-10-16T19:37:00.776Z,101049.16
2023-10-16T19:39:29.044Z,101053.63
2023-10-16T19:41:58.077Z,101049.25
2023-10-16T19:44:26.993Z,101054.06
2023-10-16T19:46:55.823Z,101057.31
2023-10-16T19:49:25.036Z,101062.28
2023-10-16T19:51:54.368Z,101059.13
2023-10-16T19:54:25.049Z,101064.47
2023-10-16T19:56:53.868Z,101059.03
2023-10-16T19:59:21.897Z,101062.09
2023-10-16T20:01:50.840Z,101063.66
2023-10-16T20:04:20.761Z,101064.19
2023-10-16T20:06:50.913Z,101059.59
2023-10-16T20:09:31.904Z,101068.78
2023-10-16T20:12:13.025Z,101066.63
2023-10-16T20:14:48.654Z,101070.66
2023-10-16T20:17:17.296Z,101060.69
2023-10-16T20:19:47.075Z,101058.25
2023-10-16T20:22:19.347Z,101053.84
2023-10-16T20:24:48.890Z,101058.31
2023-10-16T20:27:17.342Z,101050.28
2023-10-16T20:29:45.405Z,101049.47
2023-10-16T20:32:16.674Z,101062.81
2023-10-16T20:34:48.086Z,101053.78
2023-10-16T20:37:18.945Z,101055.94
2023-10-16T20:39:51.501Z,101060.28
2023-10-16T20:42:20.322Z,101056.59
2023-10-16T20:44:48.616Z,101062.34
2023-10-16T20:47:17.372Z,101059.22
2023-10-16T20:49:45.799Z,101062.22
2023-10-16T20:52:14.314Z,101062.28
2023-10-16T20:54:42.384Z,101060.16
2023-10-16T20:57:11.413Z,101061.13
2023-10-16T20:59:39.559Z,101060.06
2023-10-16T21:02:08.298Z,101062.91
2023-10-16T21:04:38.432Z,101059.03
2023-10-16T21:07:07.095Z,101063.63
2023-10-16T21:09:35.406Z,101058.50
2023-10-16T21:12:04.033Z,101060.16
2023-10-16T21:14:32.274Z,101051.34
2023-10-16T21:17:00.834Z,101054.50
2023-10-16T21:19:30.031Z,101065.84
2023-10-16T21:22:00.270Z,101058.69
2023-10-16T21:24:28.716Z,101064.63
2023-10-16T21:26:57.914Z,101062.53
2023-10-16T21:29:25.968Z,101062.16
2023-10-16T21:31:54.538Z,101052.66
2023-10-16T21:34:22.679Z,101049.16
2023-10-16T21:36:52.414Z,101060.34
2023-10-16T21:39:21.022Z,101062.59
2023-10-16T21:41:49.653Z,101058.16
2023-10-16T21:44:19.580Z,101059.00
2023-10-16T21:46:48.238Z,101061.31
2023-10-16T21:49:17.118Z,101058.03
2023-10-16T21:51:45.710Z,101059.94
2023-10-16T21:54:13.864Z,101058.63
2023-10-16T21:56:43.200Z,101065.84
2023-10-16T21:59:11.532Z,101062.09
2023-10-16T22:01:40.419Z,101063.06
2023-10-16T22:04:09.757Z,101051.78
2023-10-16T22:06:39.367Z,101051.91
2023-10-16T22:09:11.403Z,101055.53
2023-10-16T22:11:44.309Z,101054.78
2023-10-16T22:14:20.205Z,101046.31
2023-10-16T22:16:49.740Z,101052.81
2023-10-16T22:19:20.911Z,101050.16
2023-10-16T22:21:49.466Z,101049.31
2023-10-16T22:24:17.862Z,101048.06
2023-10-16T22:26:46.999Z,101049.09
2023-10-16T22:29:15.151Z,101047.03
2023-10-16T22:31:43.641Z,101054.84
2023-10-16T22:34:11.703Z,101052.22
2023-10-16T22:36:40.208Z,101046.06
2023-10-16T22:39:11.525Z,101041.28
2023-10-16T22:41:40.330Z,101040.13
2023-10-16T22:44:08.845Z,101042.44
2023-10-16T22:46:38.505Z,101047.94
2023-10-16T22:49:09.133Z,101043.81
2023-10-16T22:51:38.674Z,101035.19
2023-10-16T22:54:08.425Z,101039.66
2023-10-16T22:56:38.625Z,101031.13
2023-10-16T22:59:09.075Z,101031.28
2023-10-16T23:01:38.201Z,101032.50
2023-10-16T23:04:06.858Z,101034.88
2023-10-16T23:06:38.778Z,101027.47
2023-10-16T23:09:30.347Z,101019.06
2023-10-16T23:12:09.053Z,101024.00
2023-10-16T23:14:41.138Z,101023.16
2023-10-16T23:17:19.868Z,101025.72
2023-10-16T23:19:49.083Z,101023.56
2023-10-16T23:22:18.926Z,101028.00
2023-10-16T23:24:47.205Z,101021.75
2023-10-16T23:27:17.598Z,101017.19
2023-10-16T23:29:46.597Z,101013.88
2023-10-16T23:32:17.380Z,101016.97
2023-10-16T23:34:55.747Z,101001.06
2023-10-16T23:37:33.515Z,101002.56
2023-10-16T23:40:11.956Z,101001.91
2023-10-16T23:42:41.088Z,101002.94
2023-10-16T23:45:09.733Z,100996.84
2023-10-16T23:47:38.599Z,100979.84
2023-10-16T23:50:09.056Z,100983.19
2023-10-16T23:52:40.542Z,100981.84
2023-10-16T23:55:15.348Z,100977.50
2023-10-16T23:57:50.106Z,100979.75
